Time;durP1;ratioP1;P1;durP2;ratioP2;P2;SDS_P1;SDS_P2;PMS_P1;PMS_P2;Temp;Humidity;BMP_temperature;BMP_pressure;BME280_temperature;BME280_humidity;BME280_pressure;Samples;Min_cycle;Max_cycle;Signal;HPM_P1;HPM_P2
2022/10/30 00:00:34;;;;;;;33.67;17.55;;;14.40;99.90;;;;;;6308617;22;20024;-81
2022/10/30 00:03:00;;;;;;;39.58;18.65;;;14.40;99.90;;;;;;6281978;22;20022;-81
2022/10/30 00:05:26;;;;;;;37.28;19.35;;;14.40;99.90;;;;;;6309224;22;20011;-81
2022/10/30 00:07:54;;;;;;;39.88;19.75;;;14.40;99.90;;;;;;6281958;22;20064;-81
2022/10/30 00:10:20;;;;;;;39.50;19.77;;;14.50;99.90;;;;;;6282228;22;20061;-81
2022/10/30 00:12:46;;;;;;;38.67;18.83;;;14.40;99.90;;;;;;6309320;22;20015;-80
2022/10/30 00:15:11;;;;;;;39.03;17.35;;;14.40;99.90;;;;;;6309312;22;20023;-80
2022/10/30 00:17:37;;;;;;;34.72;18.15;;;14.50;99.90;;;;;;6281831;22;20027;-81
2022/10/30 00:20:03;;;;;;;34.20;18.45;;;14.50;99.90;;;;;;6309503;22;20019;-81
2022/10/30 00:22:29;;;;;;;34.42;17.67;;;14.50;99.90;;;;;;6281787;22;20073;-81
2022/10/30 00:24:55;;;;;;;34.15;17.55;;;14.40;99.90;;;;;;6309326;22;20019;-81
2022/10/30 00:27:20;;;;;;;31.70;18.75;;;14.50;99.90;;;;;;6309395;22;20384;-81
2022/10/30 00:29:46;;;;;;;35.92;17.45;;;14.50;99.90;;;;;;6309367;22;20466;-81
2022/10/30 00:32:12;;;;;;;37.17;17.63;;;14.40;99.90;;;;;;6309367;22;20019;-81
2022/10/30 00:34:38;;;;;;;34.60;18.23;;;14.40;99.90;;;;;;6308578;22;20313;-81
2022/10/30 00:37:03;;;;;;;38.33;18.25;;;14.40;99.90;;;;;;6281211;22;20098;-81
2022/10/30 00:39:29;;;;;;;31.95;18.25;;;14.30;99.90;;;;;;6281999;22;20522;-81
2022/10/30 00:41:54;;;;;;;33.40;17.35;;;14.30;99.90;;;;;;6309270;22;20020;-81
2022/10/30 00:44:45;;;;;;;32.97;17.42;;;14.30;99.90;;;;;;6308750;22;20015;-81
2022/10/30 00:47:27;;;;;;;38.75;18.35;;;14.30;99.90;;;;;;6308572;22;20316;-80
2022/10/30 00:50:13;;;;;;;36.75;18.88;;;14.20;99.90;;;;;;6309195;22;20019;-81
2022/10/30 00:53:01;;;;;;;30.65;18.13;;;14.30;99.90;;;;;;6281430;22;20032;-81
2022/10/30 00:55:37;;;;;;;33.53;17.73;;;14.20;99.90;;;;;;6309239;22;20046;-82
2022/10/30 00:58:07;;;;;;;35.78;17.83;;;14.10;99.90;;;;;;6309212;22;20019;-81
2022/10/30 01:00:33;;;;;;;36.30;18.85;;;14.10;99.90;;;;;;6281388;22;20347;-82
2022/10/30 01:02:59;;;;;;;41.83;18.77;;;14.10;99.90;;;;;;6308976;22;20011;-82
2022/10/30 01:05:28;;;;;;;35.58;18.80;;;14.10;99.90;;;;;;6309034;22;20015;-81
2022/10/30 01:07:54;;;;;;;32.33;18.02;;;14.00;99.90;;;;;;6308947;22;20007;-81
2022/10/30 01:10:21;;;;;;;33.40;18.88;;;14.00;99.90;;;;;;6309077;22;20019;-81
2022/10/30 01:12:48;;;;;;;33.10;18.15;;;14.00;99.90;;;;;;6308543;22;20488;-81
2022/10/30 01:15:14;;;;;;;32.60;17.30;;;13.90;99.90;;;;;;6281327;22;20019;-81
2022/10/30 01:18:02;;;;;;;33.53;17.90;;;13.90;99.90;;;;;;6281279;22;20046;-82
2022/10/30 01:20:33;;;;;;;34.42;19.90;;;13.90;99.90;;;;;;6281204;22;20386;-81
2022/10/30 01:23:10;;;;;;;38.20;19.83;;;13.90;99.90;;;;;;6281139;22;20091;-82
2022/10/30 01:25:41;;;;;;;43.17;18.88;;;13.90;99.90;;;;;;6308982;22;20042;-82
2022/10/30 01:28:25;;;;;;;37.17;17.92;;;13.80;99.90;;;;;;6308818;22;20086;-81
2022/10/30 01:31:09;;;;;;;38.45;18.70;;;13.80;99.90;;;;;;6308850;22;20015;-82
2022/10/30 01:33:53;;;;;;;37.08;17.05;;;13.80;99.90;;;;;;6308429;22;20132;-81
2022/10/30 01:36:34;;;;;;;34.97;17.77;;;13.90;99.90;;;;;;6281083;22;20019;-82
2022/10/30 01:39:22;;;;;;;37.45;17.00;;;13.80;99.90;;;;;;6308808;22;20011;-82
2022/10/30 01:41:48;;;;;;;36.10;17.13;;;13.80;99.90;;;;;;6308702;22;20078;-82
2022/10/30 01:44:22;;;;;;;33.72;17.65;;;13.80;99.90;;;;;;6308152;22;20058;-81
2022/10/30 01:47:07;;;;;;;34.25;17.65;;;13.80;99.90;;;;;;6308291;22;20022;-81
2022/10/30 01:50:01;;;;;;;38.08;17.95;;;13.80;99.90;;;;;;6308705;22;20015;-82
2022/10/30 01:52:59;;;;;;;35.70;17.00;;;13.80;99.90;;;;;;6280985;22;20026;-81
2022/10/30 01:56:04;;;;;;;31.13;17.60;;;13.80;99.90;;;;;;6308646;22;20020;-81
2022/10/30 01:58:41;;;;;;;33.03;16.65;;;13.90;99.90;;;;;;6240082;22;20443;-81
2022/10/30 02:01:07;;;;;;;33.22;17.92;;;13.80;99.90;;;;;;6308578;22;20011;-81
2022/10/30 02:03:33;;;;;;;32.35;17.13;;;13.90;99.90;;;;;;6308410;22;20451;-81
2022/10/30 02:05:59;;;;;;;31.60;17.45;;;13.80;99.90;;;;;;6308199;22;20015;-81
2022/10/30 02:08:26;;;;;;;32.03;17.42;;;13.90;99.90;;;;;;6280831;22;20390;-81
2022/10/30 02:10:52;;;;;;;36.10;18.17;;;13.80;99.90;;;;;;6307994;22;20397;-81
2022/10/30 02:13:19;;;;;;;31.00;17.23;;;13.90;99.90;;;;;;6308383;22;20026;-82
2022/10/30 02:15:46;;;;;;;35.08;17.17;;;13.90;99.90;;;;;;6280128;22;20015;-82
2022/10/30 02:18:12;;;;;;;34.90;16.95;;;13.90;99.90;;;;;;6308005;22;20486;-82
2022/10/30 02:20:38;;;;;;;36.72;17.88;;;13.80;99.90;;;;;;6280686;22;20015;-81
2022/10/30 02:23:05;;;;;;;38.35;17.55;;;13.80;99.90;;;;;;6308501;22;20443;-81
2022/10/30 02:25:31;;;;;;;35.35;17.83;;;13.80;99.90;;;;;;6308313;22;20015;-81
2022/10/30 02:27:57;;;;;;;34.53;17.60;;;13.90;99.90;;;;;;6307888;22;20443;-81
2022/10/30 02:30:22;;;;;;;28.98;16.90;;;13.90;99.90;;;;;;6308277;22;20018;-81
2022/10/30 02:32:48;;;;;;;31.73;17.33;;;13.90;99.90;;;;;;6307883;22;20015;-82
2022/10/30 02:35:13;;;;;;;40.63;18.83;;;13.80;99.90;;;;;;6308257;22;20019;-81
2022/10/30 02:37:39;;;;;;;33.47;17.92;;;13.80;99.90;;;;;;6280595;22;20015;-82
2022/10/30 02:40:07;;;;;;;41.63;18.40;;;13.70;99.90;;;;;;6308212;22;20059;-81
2022/10/30 02:42:33;;;;;;;42.40;17.55;;;13.80;99.90;;;;;;6307781;22;20455;-82
2022/10/30 02:44:59;;;;;;;36.22;17.27;;;13.70;99.90;;;;;;6308085;22;20015;-81
2022/10/30 02:47:25;;;;;;;33.63;19.05;;;13.70;99.90;;;;;;6307649;22;20007;-81
2022/10/30 02:49:50;;;;;;;34.92;16.15;;;13.70;99.90;;;;;;6308148;22;20030;-81
2022/10/30 02:52:16;;;;;;;34.83;18.52;;;13.70;99.90;;;;;;6307889;22;20043;-81
2022/10/30 02:54:41;;;;;;;31.15;17.95;;;13.70;99.90;;;;;;6308191;22;20023;-81
2022/10/30 02:57:08;;;;;;;29.17;16.90;;;13.70;99.90;;;;;;6308121;22;20440;-81
2022/10/30 02:59:34;;;;;;;36.80;17.08;;;13.70;99.90;;;;;;6308106;22;20023;-81
2022/10/30 03:02:00;;;;;;;29.95;17.20;;;13.70;99.90;;;;;;6280485;22;20044;-81
2022/10/30 03:04:25;;;;;;;36.85;18.88;;;13.60;99.90;;;;;;6307700;22;20015;-82
2022/10/30 03:06:51;;;;;;;32.70;17.20;;;13.70;99.90;;;;;;6280556;22;20011;-81
2022/10/30 03:09:16;;;;;;;39.85;18.83;;;13.70;99.90;;;;;;6309030;22;20011;-81
2022/10/30 03:11:43;;;;;;;31.00;17.33;;;13.60;99.90;;;;;;6309763;22;20015;-81
2022/10/30 03:14:09;;;;;;;35.03;17.35;;;13.70;99.90;;;;;;6310146;22;20082;-82
2022/10/30 03:16:36;;;;;;;36.97;17.27;;;13.60;99.90;;;;;;6309809;22;20057;-82
2022/10/30 03:19:01;;;;;;;38.85;17.55;;;13.60;99.90;;;;;;6309775;22;20504;-81
2022/10/30 03:21:27;;;;;;;30.23;17.13;;;13.60;99.90;;;;;;6309743;22;20039;-82
2022/10/30 03:23:53;;;;;;;32.85;17.25;;;13.60;99.90;;;;;;6310003;22;20443;-81
2022/10/30 03:26:19;;;;;;;35.65;18.00;;;13.60;99.90;;;;;;6282328;22;20019;-82
2022/10/30 03:28:45;;;;;;;35.67;16.95;;;13.60;99.90;;;;;;6309991;22;20014;-82
2022/10/30 03:31:13;;;;;;;36.35;18.00;;;13.60;99.90;;;;;;6310009;22;20321;-81
2022/10/30 03:33:39;;;;;;;31.17;17.45;;;13.50;99.90;;;;;;6309624;22;20019;-82
2022/10/30 03:36:07;;;;;;;36.35;17.23;;;13.50;99.90;;;;;;6309973;22;20034;-81
2022/10/30 03:38:33;;;;;;;34.70;16.88;;;13.50;99.90;;;;;;6309519;22;20429;-81
2022/10/30 03:40:59;;;;;;;34.20;17.52;;;13.40;99.90;;;;;;6309539;22;20019;-81
2022/10/30 03:43:25;;;;;;;34.45;17.52;;;13.40;99.90;;;;;;6309720;22;20016;-82
2022/10/30 03:45:53;;;;;;;33.92;17.85;;;13.40;99.90;;;;;;6309256;22;20011;-81
2022/10/30 03:48:20;;;;;;;36.42;17.85;;;13.30;99.90;;;;;;6308366;22;20011;-82
2022/10/30 03:50:46;;;;;;;32.65;17.55;;;13.30;99.90;;;;;;6309374;22;20331;-82
2022/10/30 03:53:12;;;;;;;32.58;17.48;;;13.30;99.90;;;;;;6280844;22;20023;-82
2022/10/30 03:55:38;;;;;;;31.73;16.52;;;13.30;99.90;;;;;;6309811;22;20110;-82
2022/10/30 03:58:05;;;;;;;38.35;17.77;;;13.30;99.90;;;;;;6309358;22;20058;-82
2022/10/30 04:00:31;;;;;;;41.13;17.08;;;13.30;99.90;;;;;;6309684;22;20083;-82
2022/10/30 04:02:57;;;;;;;29.67;16.73;;;13.30;99.90;;;;;;6309576;22;20047;-82
2022/10/30 04:05:23;;;;;;;35.33;17.08;;;13.30;99.90;;;;;;6309666;22;20015;-82
2022/10/30 04:07:58;;;;;;;34.75;17.38;;;13.30;99.90;;;;;;6281928;22;20016;-81
2022/10/30 04:10:24;;;;;;;31.70;18.23;;;13.20;99.90;;;;;;6309618;22;20023;-81
2022/10/30 04:12:50;;;;;;;37.58;17.50;;;13.30;99.90;;;;;;6309588;22;20018;-81
2022/10/30 04:15:16;;;;;;;29.77;17.40;;;13.20;99.90;;;;;;6309572;22;20133;-81
2022/10/30 04:17:48;;;;;;;44.83;18.27;;;13.30;99.90;;;;;;6281771;22;20051;-81
2022/10/30 04:20:14;;;;;;;33.88;18.33;;;13.20;99.90;;;;;;6308867;22;20091;-81
2022/10/30 04:22:40;;;;;;;38.42;19.38;;;13.20;99.90;;;;;;6281865;22;20043;-82
2022/10/30 04:25:06;;;;;;;34.65;17.88;;;13.20;99.90;;;;;;6281727;22;20065;-81
2022/10/30 04:27:37;;;;;;;43.20;17.95;;;13.30;99.90;;;;;;6309425;22;20331;-81
2022/10/30 04:30:03;;;;;;;34.08;18.33;;;13.30;99.90;;;;;;6309430;22;20026;-81
2022/10/30 04:32:29;;;;;;;39.65;18.77;;;13.30;99.90;;;;;;6309150;22;20030;-82
2022/10/30 04:34:54;;;;;;;38.00;18.38;;;13.30;99.90;;;;;;6308979;22;20015;-81
2022/10/30 04:37:20;;;;;;;41.88;19.75;;;13.40;99.90;;;;;;6309388;22;20016;-81
2022/10/30 04:39:47;;;;;;;42.88;18.75;;;13.30;99.90;;;;;;6308978;22;20094;-81
2022/10/30 04:42:13;;;;;;;31.88;18.40;;;13.40;99.90;;;;;;6309356;22;20015;-81
2022/10/30 04:44:38;;;;;;;44.72;20.13;;;13.40;99.90;;;;;;6308934;22;20019;-81
2022/10/30 04:47:04;;;;;;;36.30;18.65;;;13.30;99.90;;;;;;6308845;22;20015;-81
2022/10/30 04:49:29;;;;;;;36.25;18.40;;;13.40;99.90;;;;;;6309169;22;20325;-81
2022/10/30 04:51:55;;;;;;;45.10;18.58;;;13.40;99.90;;;;;;6281612;22;20012;-81
2022/10/30 04:54:21;;;;;;;37.58;19.10;;;13.40;99.90;;;;;;6308880;22;20323;-81
2022/10/30 04:56:46;;;;;;;41.08;18.98;;;13.30;99.90;;;;;;6308838;22;20015;-81
2022/10/30 04:59:12;;;;;;;37.78;19.23;;;13.30;99.90;;;;;;6308850;22;20027;-81
2022/10/30 05:01:38;;;;;;;43.88;19.58;;;13.40;99.90;;;;;;6281395;22;20061;-81
2022/10/30 05:04:03;;;;;;;35.38;19.13;;;13.40;99.90;;;;;;6308982;22;20042;-81
2022/10/30 05:06:29;;;;;;;37.92;19.00;;;13.30;99.90;;;;;;6309055;22;20094;-81
2022/10/30 05:08:55;;;;;;;41.67;20.38;;;13.30;99.90;;;;;;6309030;22;20011;-81
2022/10/30 05:11:21;;;;;;;43.40;19.13;;;13.40;99.90;;;;;;6308973;22;20042;-81
2022/10/30 05:13:47;;;;;;;41.75;19.10;;;13.30;99.90;;;;;;6309011;22;20376;-81
2022/10/30 05:16:12;;;;;;;39.53;19.08;;;13.40;99.90;;;;;;6308934;22;20335;-81
2022/10/30 05:18:38;;;;;;;39.80;19.45;;;13.40;99.90;;;;;;6308568;22;20051;-81
2022/10/30 05:21:04;;;;;;;44.53;18.90;;;13.50;99.90;;;;;;6308884;22;20019;-82
2022/10/30 05:23:29;;;;;;;42.53;20.88;;;13.40;99.90;;;;;;6308808;22;20011;-82
2022/10/30 05:25:55;;;;;;;36.58;19.33;;;13.30;99.90;;;;;;6308560;22;20339;-81
2022/10/30 05:28:21;;;;;;;46.35;19.05;;;13.30;99.90;;;;;;6308306;22;20321;-81
2022/10/30 05:30:46;;;;;;;32.97;19.70;;;13.30;99.90;;;;;;6308746;22;20013;-81
2022/10/30 05:33:14;;;;;;;38.20;19.67;;;13.40;99.90;;;;;;6306901;22;20090;-81
2022/10/30 05:35:40;;;;;;;40.10;18.80;;;13.30;99.90;;;;;;6308742;22;20026;-82
2022/10/30 05:38:06;;;;;;;40.38;20.05;;;13.30;99.90;;;;;;6308749;22;20015;-82
2022/10/30 05:40:33;;;;;;;37.92;19.75;;;13.20;99.90;;;;;;6281100;22;20034;-82
2022/10/30 05:42:59;;;;;;;39.92;20.80;;;13.30;99.90;;;;;;6308229;22;20443;-81
2022/10/30 05:45:25;;;;;;;39.55;19.08;;;13.30;99.90;;;;;;6280897;22;20030;-81
2022/10/30 05:47:55;;;;;;;44.85;20.00;;;13.20;99.90;;;;;;6308058;22;20013;-81
2022/10/30 05:50:21;;;;;;;42.05;21.00;;;13.20;99.90;;;;;;6308642;22;20011;-81
2022/10/30 05:52:46;;;;;;;47.88;20.50;;;13.10;99.90;;;;;;6309067;22;20083;-81
2022/10/30 05:55:12;;;;;;;43.65;21.83;;;13.10;99.90;;;;;;6308787;22;20011;-81
2022/10/30 05:57:38;;;;;;;38.95;19.95;;;13.10;99.90;;;;;;6308621;22;20374;-81
2022/10/30 06:00:04;;;;;;;38.10;19.75;;;13.00;99.90;;;;;;6308129;22;20008;-81
2022/10/30 06:02:29;;;;;;;38.97;21.02;;;13.10;99.90;;;;;;6308548;22;20015;-81
2022/10/30 06:04:55;;;;;;;35.58;19.83;;;13.10;99.90;;;;;;6308440;22;20308;-81
2022/10/30 06:07:21;;;;;;;36.97;19.25;;;13.10;99.90;;;;;;6308194;22;20030;-81
2022/10/30 06:09:46;;;;;;;42.67;20.17;;;13.00;99.90;;;;;;6308480;22;20008;-82
2022/10/30 06:12:15;;;;;;;40.72;19.67;;;13.10;99.90;;;;;;6308473;22;20120;-82
2022/10/30 06:14:40;;;;;;;36.17;20.45;;;13.00;99.90;;;;;;6308091;22;20022;-82
2022/10/30 06:17:06;;;;;;;43.92;20.85;;;13.00;99.90;;;;;;6280657;22;20019;-82
2022/10/30 06:19:31;;;;;;;41.97;20.00;;;13.00;99.90;;;;;;6280531;22;20324;-82
2022/10/30 06:21:57;;;;;;;38.38;20.25;;;13.00;99.90;;;;;;6280365;22;20018;-81
2022/10/30 06:24:22;;;;;;;44.20;20.92;;;12.90;99.90;;;;;;6306972;22;20019;-81
2022/10/30 06:26:49;;;;;;;44.60;20.88;;;12.90;99.90;;;;;;6280005;22;20042;-81
2022/10/30 06:29:15;;;;;;;49.90;23.33;;;12.90;99.90;;;;;;6308222;22;20074;-81
2022/10/30 06:31:41;;;;;;;47.92;22.58;;;12.90;99.90;;;;;;6307815;22;20438;-81
2022/10/30 06:34:07;;;;;;;48.35;21.25;;;12.90;99.90;;;;;;6280549;22;20072;-82
2022/10/30 06:36:32;;;;;;;44.00;21.88;;;12.90;99.90;;;;;;6280477;22;20038;-82
2022/10/30 06:38:58;;;;;;;35.10;19.58;;;12.90;99.90;;;;;;6308157;22;20113;-82
2022/10/30 06:41:24;;;;;;;40.67;20.63;;;12.80;99.90;;;;;;6308136;22;20015;-81
2022/10/30 06:43:49;;;;;;;40.22;22.98;;;12.80;99.90;;;;;;6307628;22;20038;-81
2022/10/30 06:46:15;;;;;;;40.05;22.30;;;12.80;99.90;;;;;;6307678;22;20432;-79
2022/10/30 06:48:40;;;;;;;38.55;21.60;;;12.80;99.90;;;;;;6306950;22;20104;-79
2022/10/30 06:51:06;;;;;;;48.00;23.08;;;12.80;99.90;;;;;;6307515;22;20019;-79
2022/10/30 06:53:32;;;;;;;47.85;22.45;;;12.80;99.90;;;;;;6307830;22;20022;-80
2022/10/30 06:56:00;;;;;;;42.78;21.67;;;12.80;99.90;;;;;;6307803;22;20015;-80
2022/10/30 06:58:26;;;;;;;45.65;22.38;;;12.70;99.90;;;;;;6280148;22;20019;-80
2022/10/30 07:00:53;;;;;;;46.65;22.38;;;12.80;99.90;;;;;;6307636;22;20038;-79
2022/10/30 07:03:18;;;;;;;41.90;20.83;;;12.80;99.90;;;;;;6307242;22;20377;-78
2022/10/30 07:05:44;;;;;;;42.53;22.73;;;12.80;99.90;;;;;;6307767;22;20483;-80
2022/10/30 07:08:10;;;;;;;47.83;22.88;;;12.90;99.90;;;;;;6280176;22;20370;-78
2022/10/30 07:10:36;;;;;;;49.03;23.48;;;12.80;99.90;;;;;;6280044;22;20466;-80
2022/10/30 07:13:01;;;;;;;40.53;21.92;;;12.90;99.90;;;;;;6280141;22;20011;-80
2022/10/30 07:15:27;;;;;;;46.83;22.40;;;12.80;99.90;;;;;;6280006;22;20016;-81
2022/10/30 07:17:58;;;;;;;43.60;23.38;;;12.80;99.90;;;;;;6307451;22;20027;-82
2022/10/30 07:20:26;;;;;;;46.75;23.55;;;12.80;99.90;;;;;;6307446;22;20011;-80
2022/10/30 07:22:51;;;;;;;43.47;22.80;;;12.80;99.90;;;;;;6307360;22;20060;-81
2022/10/30 07:25:17;;;;;;;48.75;22.65;;;12.90;99.90;;;;;;6307369;22;20047;-80
2022/10/30 07:27:45;;;;;;;49.53;22.60;;;12.90;99.90;;;;;;6307759;22;20016;-81
2022/10/30 07:30:13;;;;;;;38.60;21.77;;;12.90;99.90;;;;;;6307395;22;20020;-81
2022/10/30 07:32:39;;;;;;;45.25;22.50;;;12.90;99.90;;;;;;6307668;22;20007;-80
2022/10/30 07:35:05;;;;;;;48.78;23.02;;;12.90;99.90;;;;;;6307620;22;20077;-80
2022/10/30 07:37:31;;;;;;;42.20;22.13;;;13.00;99.90;;;;;;6307308;22;20018;-80
2022/10/30 07:39:57;;;;;;;43.63;23.33;;;12.90;99.90;;;;;;6307573;22;20015;-80
2022/10/30 07:42:23;;;;;;;50.53;23.67;;;12.90;99.90;;;;;;6279867;22;20056;-80
2022/10/30 07:44:48;;;;;;;51.10;23.65;;;12.90;99.90;;;;;;6280488;22;20069;-80
2022/10/30 07:47:14;;;;;;;50.05;24.13;;;13.10;99.90;;;;;;6307114;22;20023;-81
2022/10/30 07:49:40;;;;;;;48.13;22.92;;;13.00;99.90;;;;;;6279816;22;20023;-80
2022/10/30 07:52:05;;;;;;;43.80;24.30;;;13.10;99.90;;;;;;6279898;22;20137;-80
2022/10/30 07:54:31;;;;;;;39.92;22.85;;;13.20;99.90;;;;;;6308121;22;20038;-80
2022/10/30 07:56:57;;;;;;;44.65;22.83;;;13.20;99.90;;;;;;6281444;22;20015;-80
2022/10/30 07:59:24;;;;;;;50.35;24.15;;;13.20;99.90;;;;;;6309438;22;20054;-81
2022/10/30 08:01:50;;;;;;;43.05;24.15;;;13.30;99.90;;;;;;6309439;22;20015;-81
2022/10/30 08:04:16;;;;;;;50.30;24.48;;;13.40;99.90;;;;;;6282003;22;20046;-81
2022/10/30 08:06:42;;;;;;;48.40;23.13;;;13.50;99.90;;;;;;6309242;22;20017;-81
2022/10/30 08:09:08;;;;;;;41.85;24.08;;;13.50;99.90;;;;;;6309232;22;20051;-79
2022/10/30 08:11:34;;;;;;;48.35;23.80;;;13.50;99.90;;;;;;6309242;22;20104;-80
2022/10/30 08:14:00;;;;;;;43.28;21.40;;;13.60;99.90;;;;;;6309378;22;20312;-80
2022/10/30 08:16:26;;;;;;;45.30;23.08;;;13.80;99.90;;;;;;6309231;22;20007;-82
2022/10/30 08:18:52;;;;;;;42.97;23.23;;;13.70;99.90;;;;;;6309177;22;20319;-80
2022/10/30 08:21:17;;;;;;;44.72;22.92;;;13.80;99.90;;;;;;6281580;22;20065;-80
2022/10/30 08:23:43;;;;;;;46.92;23.27;;;13.90;99.90;;;;;;6308951;22;20016;-80
2022/10/30 08:26:09;;;;;;;47.22;24.60;;;14.00;99.90;;;;;;6308962;22;20347;-81
2022/10/30 08:28:34;;;;;;;40.08;21.83;;;14.00;99.90;;;;;;6308250;22;20330;-81
2022/10/30 08:31:01;;;;;;;43.25;22.08;;;14.00;99.90;;;;;;6281423;22;20392;-80
2022/10/30 08:33:27;;;;;;;41.97;24.50;;;14.10;99.90;;;;;;6308973;22;20090;-80
2022/10/30 08:35:55;;;;;;;43.20;22.88;;;14.20;99.90;;;;;;6281342;22;20047;-80
2022/10/30 08:38:21;;;;;;;44.08;22.50;;;14.10;99.90;;;;;;6309075;22;20012;-82
2022/10/30 08:40:47;;;;;;;41.55;23.55;;;14.30;99.90;;;;;;6281449;22;20019;-81
2022/10/30 08:43:13;;;;;;;41.17;21.73;;;14.30;99.90;;;;;;6308918;22;20019;-80
2022/10/30 08:45:39;;;;;;;45.65;22.88;;;14.30;99.90;;;;;;6308327;22;20347;-81
2022/10/30 08:48:06;;;;;;;39.85;22.00;;;14.40;99.90;;;;;;6308772;22;20030;-81
2022/10/30 08:50:33;;;;;;;51.63;23.27;;;14.40;99.90;;;;;;6281180;22;20015;-81
2022/10/30 08:53:04;;;;;;;40.30;22.50;;;14.40;99.90;;;;;;6281148;22;20015;-81
2022/10/30 08:55:31;;;;;;;42.58;22.50;;;14.60;99.90;;;;;;6308841;22;20027;-81
2022/10/30 08:57:57;;;;;;;41.20;22.20;;;14.60;99.90;;;;;;6308338;22;20086;-80
2022/10/30 09:00:23;;;;;;;40.70;21.92;;;14.70;99.90;;;;;;6308494;22;20019;-81
2022/10/30 09:02:48;;;;;;;41.63;21.88;;;14.80;99.90;;;;;;6308656;22;20018;-80
2022/10/30 09:05:14;;;;;;;43.95;22.42;;;14.90;99.90;;;;;;6281067;22;20055;-81
2022/10/30 09:07:40;;;;;;;40.05;21.45;;;14.90;99.90;;;;;;6308374;22;20027;-81
2022/10/30 09:10:06;;;;;;;41.10;21.92;;;15.00;99.90;;;;;;6308190;22;20019;-80
2022/10/30 09:12:32;;;;;;;43.67;20.75;;;15.10;99.90;;;;;;6308376;22;20074;-79
2022/10/30 09:14:57;;;;;;;38.42;21.15;;;15.10;99.90;;;;;;6280951;22;20098;-80
2022/10/30 09:17:23;;;;;;;41.28;21.90;;;15.20;99.90;;;;;;6308687;22;20022;-80
2022/10/30 09:19:49;;;;;;;38.22;20.40;;;15.40;99.90;;;;;;6308455;22;20026;-80
2022/10/30 09:22:14;;;;;;;36.40;21.35;;;15.40;99.90;;;;;;6308510;22;20018;-80
2022/10/30 09:24:40;;;;;;;42.95;21.48;;;15.40;99.90;;;;;;6308024;22;20015;-81
2022/10/30 09:27:06;;;;;;;41.08;21.50;;;15.50;99.90;;;;;;6308482;22;20015;-81
2022/10/30 09:29:32;;;;;;;43.53;21.35;;;15.50;99.90;;;;;;6281128;22;20019;-81
2022/10/30 09:31:58;;;;;;;38.70;21.20;;;15.60;99.90;;;;;;6280803;22;20044;-80
2022/10/30 09:34:24;;;;;;;40.38;21.40;;;15.60;99.90;;;;;;6308400;22;20331;-81
2022/10/30 09:36:50;;;;;;;43.05;20.70;;;15.70;99.90;;;;;;6280740;22;20017;-80
2022/10/30 09:39:15;;;;;;;43.33;21.63;;;15.70;99.90;;;;;;6280380;22;20031;-80
2022/10/30 09:41:50;;;;;;;43.70;20.05;;;15.80;99.90;;;;;;6307848;22;20026;-80
2022/10/30 09:44:47;;;;;;;35.38;20.50;;;15.90;99.90;;;;;;6308272;22;20033;-80
2022/10/30 09:47:30;;;;;;;39.00;20.23;;;15.90;99.90;;;;;;6307895;22;20339;-80
2022/10/30 09:50:12;;;;;;;46.63;20.83;;;16.00;99.90;;;;;;6280547;22;20343;-80
2022/10/30 09:52:42;;;;;;;36.33;19.50;;;16.10;99.90;;;;;;6308229;22;20016;-81
2022/10/30 09:55:33;;;;;;;39.72;21.63;;;16.20;99.90;;;;;;6308206;22;20015;-81
2022/10/30 09:58:38;;;;;;;35.83;21.80;;;16.30;99.90;;;;;;6308354;22;20026;-81
2022/10/30 10:01:10;;;;;;;39.15;19.38;;;16.50;99.90;;;;;;6308287;22;20089;-81
2022/10/30 10:03:50;;;;;;;53.67;20.95;;;16.60;99.90;;;;;;6308227;22;20106;-81
2022/10/30 10:06:19;;;;;;;43.92;21.02;;;16.70;99.90;;;;;;6307985;22;20015;-81
2022/10/30 10:08:53;;;;;;;52.30;22.48;;;16.80;99.90;;;;;;6308180;22;20007;-81
2022/10/30 10:11:24;;;;;;;40.55;19.98;;;16.80;99.90;;;;;;6308025;22;20050;-81
2022/10/30 10:13:58;;;;;;;46.20;21.38;;;17.00;99.90;;;;;;6308273;22;20021;-82
2022/10/30 10:16:32;;;;;;;47.15;20.95;;;17.10;99.90;;;;;;6307799;22;20074;-81
2022/10/30 10:19:01;;;;;;;43.17;19.75;;;17.10;99.90;;;;;;6307700;22;20015;-81
2022/10/30 10:21:28;;;;;;;38.75;18.48;;;17.20;99.90;;;;;;6307756;22;20351;-80
2022/10/30 10:24:03;;;;;;;37.67;18.30;;;17.20;99.90;;;;;;6307735;22;20015;-81
2022/10/30 10:26:50;;;;;;;42.50;19.88;;;17.40;99.90;;;;;;6280396;22;20019;-81
2022/10/30 10:29:35;;;;;;;41.63;18.20;;;17.50;99.90;;;;;;6307762;22;20523;-80
2022/10/30 10:32:18;;;;;;;36.92;19.00;;;17.50;99.90;;;;;;6280481;22;20015;-81
2022/10/30 10:35:06;;;;;;;41.20;19.15;;;17.60;99.90;;;;;;6308116;22;20034;-80
2022/10/30 10:37:37;;;;;;;41.00;18.75;;;17.70;99.90;;;;;;6307594;22;20451;-81
2022/10/30 10:40:25;;;;;;;36.08;18.23;;;17.70;99.90;;;;;;6280494;22;20073;-80
2022/10/30 10:42:59;;;;;;;33.90;17.08;;;17.70;99.90;;;;;;6307597;22;20477;-80
2022/10/30 10:46:10;;;;;;;34.00;17.30;;;17.80;99.90;;;;;;6307571;22;20069;-80
2022/10/30 10:48:41;;;;;;;35.15;17.02;;;17.90;99.90;;;;;;6305863;22;20019;-80
2022/10/30 10:51:13;;;;;;;32.13;17.73;;;18.00;99.90;;;;;;6307745;22;20050;-79
2022/10/30 10:53:48;;;;;;;31.08;16.77;;;18.00;99.90;;;;;;6308112;22;20016;-79
2022/10/30 10:56:15;;;;;;;32.22;16.80;;;18.10;99.90;;;;;;6280761;22;20046;-79
2022/10/30 10:58:53;;;;;;;38.33;16.27;;;18.20;99.90;;;;;;6306449;22;20475;-79
2022/10/30 11:01:31;;;;;;;34.45;16.10;;;18.30;99.90;;;;;;6308145;22;20015;-80
2022/10/30 11:04:02;;;;;;;29.25;16.30;;;18.30;99.90;;;;;;6307966;22;20015;-80
2022/10/30 11:06:34;;;;;;;35.35;15.30;;;18.40;99.90;;;;;;6307697;22;20050;-80
2022/10/30 11:09:19;;;;;;;34.30;14.93;;;18.40;99.90;;;;;;6308005;22;20007;-80
2022/10/30 11:11:47;;;;;;;34.25;15.57;;;18.40;99.90;;;;;;6308017;22;20023;-81
2022/10/30 11:14:26;;;;;;;35.08;15.60;;;18.40;99.90;;;;;;6307964;22;20030;-80
2022/10/30 11:17:25;;;;;;;33.53;15.50;;;18.40;99.90;;;;;;6280313;22;20019;-80
2022/10/30 11:19:57;;;;;;;28.70;15.48;;;18.50;99.90;;;;;;6308043;22;20015;-81
2022/10/30 11:22:29;;;;;;;28.35;13.50;;;18.40;99.90;;;;;;6307639;22;20011;-80
2022/10/30 11:24:55;;;;;;;30.77;14.23;;;18.40;99.90;;;;;;6307565;22;20316;-80
2022/10/30 11:27:23;;;;;;;32.67;14.63;;;18.40;99.90;;;;;;6280136;22;20489;-80
2022/10/30 11:29:51;;;;;;;28.58;14.32;;;18.50;99.90;;;;;;6307437;22;20015;-81
2022/10/30 11:32:21;;;;;;;33.10;14.88;;;18.60;99.90;;;;;;6308843;22;20015;-81
2022/10/30 11:35:00;;;;;;;30.08;14.65;;;18.50;99.90;;;;;;6308901;22;20054;-81
2022/10/30 11:37:32;;;;;;;31.63;14.52;;;18.60;99.90;;;;;;6309966;22;20128;-81
2022/10/30 11:40:17;;;;;;;31.35;13.05;;;18.60;99.90;;;;;;6309793;22;20021;-81
2022/10/30 11:42:55;;;;;;;29.13;14.88;;;18.70;99.90;;;;;;6309931;22;20106;-81
2022/10/30 11:45:32;;;;;;;26.55;13.85;;;18.70;99.90;;;;;;6309620;22;20015;-81
2022/10/30 11:47:59;;;;;;;27.63;13.80;;;18.70;99.90;;;;;;6309112;22;20094;-81
2022/10/30 11:50:28;;;;;;;33.35;14.18;;;18.80;99.90;;;;;;6309545;22;20015;-84
2022/10/30 11:52:57;;;;;;;28.88;14.73;;;18.80;99.90;;;;;;6309238;22;20019;-81
2022/10/30 11:55:28;;;;;;;30.63;12.63;;;18.90;99.90;;;;;;6309294;22;20523;-81
2022/10/30 11:57:56;;;;;;;27.40;12.90;;;18.90;99.90;;;;;;6309523;22;20046;-81
2022/10/30 12:00:30;;;;;;;23.98;13.18;;;18.90;99.90;;;;;;6309106;22;20304;-81
2022/10/30 12:02:59;;;;;;;33.72;13.60;;;18.90;99.90;;;;;;6309474;22;20019;-80
2022/10/30 12:05:24;;;;;;;26.13;12.80;;;18.90;99.90;;;;;;6309067;22;20023;-80
2022/10/30 12:07:51;;;;;;;26.40;11.60;;;18.90;99.90;;;;;;6309453;22;20011;-81
2022/10/30 12:10:28;;;;;;;27.67;11.60;;;18.90;99.90;;;;;;6309456;22;20061;-81
2022/10/30 12:12:54;;;;;;;26.80;12.30;;;19.00;99.90;;;;;;6309421;22;20037;-81
2022/10/30 12:15:24;;;;;;;22.88;11.60;;;19.10;99.90;;;;;;6309204;22;20023;-80
2022/10/30 12:17:53;;;;;;;27.15;12.65;;;19.00;99.90;;;;;;6309367;22;20061;-81
2022/10/30 12:20:19;;;;;;;27.98;12.48;;;19.20;99.90;;;;;;6309265;22;20015;-81
2022/10/30 12:22:45;;;;;;;25.45;11.75;;;19.10;99.90;;;;;;6309319;22;20096;-80
2022/10/30 12:25:21;;;;;;;30.35;12.38;;;19.10;99.90;;;;;;6308821;22;20418;-80
2022/10/30 12:27:47;;;;;;;23.08;12.80;;;19.10;99.90;;;;;;6308956;22;20019;-80
2022/10/30 12:30:18;;;;;;;26.75;12.10;;;19.10;99.90;;;;;;6281487;22;20064;-80
2022/10/30 12:33:11;;;;;;;27.42;12.10;;;19.00;99.90;;;;;;6308724;22;20098;-80
2022/10/30 12:35:45;;;;;;;30.02;12.57;;;19.10;99.90;;;;;;6295827;22;20034;-80
2022/10/30 12:38:31;;;;;;;23.08;11.23;;;19.20;99.90;;;;;;6281489;22;20019;-80